Time;durP1;ratioP1;P1;durP2;ratioP2;P2;SDS_P1;SDS_P2;PMS_P1;PMS_P2;Temp;Humidity;BMP_temperature;BMP_pressure;BME280_temperature;BME280_humidity;BME280_pressure;Samples;Min_cycle;Max_cycle;Signal;HPM_P1;HPM_P2
2021/01/30 00:00:34;;;;;;;25.70;5.63;;;;;;;11.26;82.35;99175.72;5035515;28;20056;-76
2021/01/30 00:03:00;;;;;;;18.38;5.63;;;;;;;11.25;81.37;99179.69;5036728;28;20372;-75
2021/01/30 00:05:28;;;;;;;19.13;4.90;;;;;;;11.05;81.29;99181.19;5038925;28;20030;-77
2021/01/30 00:07:54;;;;;;;11.82;3.92;;;;;;;11.06;80.55;99183.59;5022746;28;20473;-76
2021/01/30 00:10:21;;;;;;;14.23;3.90;;;;;;;11.04;77.60;99179.63;5035746;28;20048;-76
2021/01/30 00:15:31;;;;;;;5.95;2.33;;;;;;;11.46;69.79;99170.63;5036719;28;20071;-76
2021/01/30 00:17:57;;;;;;;7.15;2.25;;;;;;;11.54;68.62;99181.38;5034277;28;20458;-76
2021/01/30 00:20:28;;;;;;;17.05;4.18;;;;;;;11.54;79.36;99181.38;5034730;28;20031;-76
2021/01/30 00:22:55;;;;;;;16.92;4.13;;;;;;;11.54;80.87;99186.94;5035452;28;20025;-76
2021/01/30 00:25:24;;;;;;;11.60;3.42;;;;;;;11.64;77.90;99190.16;5035476;28;20032;-76
2021/01/30 00:27:50;;;;;;;15.68;4.18;;;;;;;11.45;80.40;99200.47;5035970;28;20037;-76
2021/01/30 00:30:19;;;;;;;14.80;3.75;;;;;;;11.42;80.38;99208.81;5038489;28;20037;-76
2021/01/30 00:32:44;;;;;;;21.33;5.10;;;;;;;11.51;82.57;99215.63;5041742;28;20026;-77
2021/01/30 00:35:11;;;;;;;12.48;5.15;;;;;;;11.34;82.93;99223.88;5041663;28;20121;-76
2021/01/30 00:37:37;;;;;;;22.05;5.32;;;;;;;11.31;82.92;99200.41;5041875;28;20026;-73
2021/01/30 00:40:05;;;;;;;8.57;4.05;;;;;;;11.11;79.97;99215.81;5042600;28;20017;-76
2021/01/30 00:42:30;;;;;;;19.48;4.45;;;;;;;11.17;79.74;99205.91;5042541;28;20026;-77
2021/01/30 00:44:56;;;;;;;11.63;3.45;;;;;;;11.25;73.38;99204.75;5042523;28;20040;-76
2021/01/30 00:47:22;;;;;;;11.13;3.13;;;;;;;11.39;70.98;99204.81;5042413;28;20416;-76
2021/01/30 00:49:48;;;;;;;11.43;4.45;;;;;;;11.42;74.74;99217.97;5042385;28;20063;-76
2021/01/30 00:52:16;;;;;;;12.15;2.92;;;;;;;11.40;70.76;99220.34;5042337;28;20099;-76
2021/01/30 00:54:42;;;;;;;10.20;3.08;;;;;;;11.62;67.76;99220.44;5041868;28;20029;-76
2021/01/30 00:57:08;;;;;;;12.40;2.85;;;;;;;11.59;67.39;99210.06;5041277;28;20037;-76
2021/01/30 00:59:34;;;;;;;8.50;2.40;;;;;;;11.75;66.01;99224.44;5042520;28;20031;-76
2021/01/30 01:02:00;;;;;;;8.38;2.40;;;;;;;11.70;69.63;99228.41;5043097;28;20088;-77
2021/01/30 01:04:26;;;;;;;12.32;2.90;;;;;;;11.59;72.31;99229.56;5043852;28;20455;-77
2021/01/30 01:06:52;;;;;;;7.60;2.60;;;;;;;11.60;70.22;99231.16;5040592;28;20083;-76
2021/01/30 01:09:19;;;;;;;11.93;3.40;;;;;;;11.76;67.64;99214.88;5039728;28;20029;-76
2021/01/30 01:11:48;;;;;;;10.63;3.17;;;;;;;11.83;67.83;99225.28;5040197;28;20034;-76
2021/01/30 01:14:13;;;;;;;6.78;2.30;;;;;;;11.89;67.83;99230.09;5040882;28;20033;-76
2021/01/30 01:16:40;;;;;;;9.07;3.00;;;;;;;11.82;68.06;99223.69;5040501;28;20041;-77
2021/01/30 01:19:06;;;;;;;13.27;2.58;;;;;;;11.84;67.67;99229.66;5040374;28;20033;-76
2021/01/30 01:21:32;;;;;;;4.28;2.10;;;;;;;11.81;66.74;99234.00;5040873;28;20052;-76
2021/01/30 01:23:57;;;;;;;8.02;2.88;;;;;;;11.81;66.45;99217.28;5040592;28;20030;-76
2021/01/30 01:26:23;;;;;;;6.28;1.73;;;;;;;11.85;65.89;99222.91;5040440;28;20541;-76
2021/01/30 01:28:49;;;;;;;8.73;1.95;;;;;;;11.82;65.74;99224.47;5040644;28;20029;-76
2021/01/30 01:31:17;;;;;;;6.85;1.58;;;;;;;11.77;65.50;99233.19;5040818;28;20063;-76
2021/01/30 01:33:43;;;;;;;5.50;2.00;;;;;;;11.87;65.97;99226.88;5039806;28;20036;-76
2021/01/30 01:36:09;;;;;;;4.75;1.90;;;;;;;11.86;65.59;99225.28;5039890;28;20029;-76
2021/01/30 01:38:34;;;;;;;9.73;1.90;;;;;;;11.81;64.96;99220.06;5040176;28;20091;-76
2021/01/30 01:41:01;;;;;;;8.02;2.20;;;;;;;11.70;65.56;99238.75;5039230;28;20030;-76
2021/01/30 01:43:28;;;;;;;6.80;2.13;;;;;;;11.72;65.78;99230.81;5039952;28;20079;-76
2021/01/30 01:46:21;;;;;;;9.38;2.45;;;;;;;11.65;64.85;99212.06;5040032;28;20034;-76
2021/01/30 01:49:06;;;;;;;6.47;2.38;;;;;;;11.77;63.93;99194.16;5038861;28;20045;-76
2021/01/30 01:51:48;;;;;;;9.68;2.78;;;;;;;11.87;63.54;99214.94;5039033;28;20022;-76
2021/01/30 01:54:22;;;;;;;3.28;1.63;;;;;;;11.91;64.50;99216.53;5022658;28;20041;-76
2021/01/30 01:57:11;;;;;;;7.70;1.65;;;;;;;11.81;64.37;99211.69;5039033;28;20021;-76
2021/01/30 01:59:42;;;;;;;8.55;1.75;;;;;;;12.04;63.01;99209.41;5023891;28;20060;-76
2021/01/30 02:02:09;;;;;;;7.28;2.20;;;;;;;11.90;63.93;99225.31;5039958;28;20035;-77
2021/01/30 02:04:34;;;;;;;9.15;1.95;;;;;;;11.97;64.35;99217.75;5022864;28;20068;-76
2021/01/30 02:07:02;;;;;;;6.20;1.77;;;;;;;11.87;65.45;99226.88;5038548;28;20041;-76
2021/01/30 02:09:27;;;;;;;10.25;2.33;;;;;;;11.83;66.59;99226.09;5039039;28;20554;-76
2021/01/30 02:12:10;;;;;;;7.07;2.45;;;;;;;11.74;67.33;99222.84;5039393;28;20033;-76
2021/01/30 02:14:42;;;;;;;12.18;3.15;;;;;;;11.67;69.18;99233.97;5039201;28;20479;-76
2021/01/30 02:17:32;;;;;;;12.55;2.95;;;;;;;11.53;71.62;99235.50;5038532;28;20541;-76
2021/01/30 02:20:13;;;;;;;9.82;3.67;;;;;;;11.34;72.77;99221.09;5039131;28;20021;-76
2021/01/30 02:22:51;;;;;;;10.38;2.60;;;;;;;11.44;71.48;99234.28;5039762;28;20029;-76
2021/01/30 02:26:04;;;;;;;13.30;3.47;;;;;;;11.12;74.29;99209.84;5039873;28;20033;-76
2021/01/30 02:28:45;;;;;;;11.90;2.63;;;;;;;11.12;75.14;99225.75;5038194;28;20032;-76
2021/01/30 02:31:30;;;;;;;14.68;3.25;;;;;;;10.96;75.10;99229.66;5038905;28;20029;-77
2021/01/30 02:34:37;;;;;;;11.73;2.75;;;;;;;10.84;76.68;99218.84;5040469;28;20032;-76
2021/01/30 02:37:18;;;;;;;20.33;3.33;;;;;;;10.74;76.95;99216.78;5039538;28;20030;-76
2021/01/30 02:39:50;;;;;;;32.50;10.13;;;;;;;10.74;77.57;99217.59;5038535;28;20029;-76
2021/01/30 02:42:21;;;;;;;16.48;5.95;;;;;;;10.71;78.13;99212.81;5041509;28;20025;-76
2021/01/30 02:44:56;;;;;;;9.82;4.07;;;;;;;10.61;78.52;99216.31;5041167;28;20029;-76
2021/01/30 02:47:25;;;;;;;23.48;12.05;;;;;;;10.57;78.69;99207.16;5040988;28;20041;-76
2021/01/30 02:49:58;;;;;;;26.42;10.45;;;;;;;10.67;79.17;99211.19;5040771;28;20026;-75
2021/01/30 02:52:27;;;;;;;16.02;6.03;;;;;;;10.59;78.59;99209.53;5025657;28;20034;-76
2021/01/30 02:54:56;;;;;;;16.23;6.82;;;;;;;10.52;79.08;99210.28;5041205;28;20042;-76
2021/01/30 02:57:24;;;;;;;20.65;7.57;;;;;;;10.43;79.17;99207.81;5040937;28;20034;-76
2021/01/30 02:59:53;;;;;;;19.38;5.47;;;;;;;10.43;80.06;99218.16;5041275;28;20078;-76
2021/01/30 03:02:23;;;;;;;16.02;4.80;;;;;;;10.35;80.00;99211.75;5041126;28;20033;-76
2021/01/30 03:04:52;;;;;;;11.48;4.28;;;;;;;10.36;80.08;99212.53;5040508;28;20025;-77
2021/01/30 03:07:24;;;;;;;12.68;3.97;;;;;;;10.36;80.15;99207.78;5041131;28;20029;-76
2021/01/30 03:10:11;;;;;;;14.95;4.68;;;;;;;10.30;80.61;99203.75;5039764;28;20029;-76
2021/01/30 03:12:49;;;;;;;14.00;5.07;;;;;;;10.30;79.88;99217.66;5038874;28;20029;-75
2021/01/30 03:15:33;;;;;;;12.77;4.43;;;;;;;10.18;80.30;99212.38;5041232;28;20464;-76
2021/01/30 03:18:02;;;;;;;18.15;4.75;;;;;;;10.13;81.04;99209.94;5041655;28;20026;-76
2021/01/30 03:20:30;;;;;;;18.25;5.53;;;;;;;9.82;81.26;99170.34;5042071;28;20026;-76
2021/01/30 03:22:57;;;;;;;13.35;5.15;;;;;;;10.12;82.09;99213.88;5041247;28;20026;-76
2021/01/30 03:25:26;;;;;;;12.40;3.90;;;;;;;10.16;82.25;99217.50;5042159;28;20060;-76
2021/01/30 03:27:55;;;;;;;13.48;3.00;;;;;;;10.12;82.33;99213.88;5041951;28;20087;-76
2021/01/30 03:30:22;;;;;;;7.97;3.25;;;;;;;10.15;82.61;99213.13;5042195;28;20379;-76
2021/01/30 03:32:48;;;;;;;10.30;3.08;;;;;;;10.12;82.60;99219.44;5042275;28;20026;-76
2021/01/30 03:35:14;;;;;;;28.55;4.78;;;;;;;10.44;84.14;99220.56;5042991;28;20049;-76
2021/01/30 03:37:40;;;;;;;15.60;4.00;;;;;;;10.57;83.64;99217.47;5027268;28;20038;-76
2021/01/30 03:40:07;;;;;;;14.90;3.10;;;;;;;10.71;84.25;99223.16;5039949;28;20085;-76
2021/01/30 03:42:33;;;;;;;14.63;3.75;;;;;;;10.75;84.40;99219.19;5039944;28;20025;-75
2021/01/30 03:44:59;;;;;;;14.70;4.32;;;;;;;10.76;82.16;99228.34;5040403;28;20029;-76
2021/01/30 03:47:25;;;;;;;16.58;6.63;;;;;;;10.66;81.47;99226.28;5023737;28;20144;-76
2021/01/30 03:49:50;;;;;;;31.45;15.05;;;;;;;10.41;80.80;99238.00;5039379;28;20503;-76
2021/01/30 03:52:16;;;;;;;54.17;29.52;;;;;;;10.27;80.88;99232.31;5039104;28;20029;-76
2021/01/30 03:54:41;;;;;;;42.95;26.33;;;;;;;10.13;81.27;99221.06;5040413;28;20033;-75
2021/01/30 03:57:07;;;;;;;30.95;17.52;;;;;;;10.08;81.46;99227.75;5039663;28;20034;-76
2021/01/30 03:59:33;;;;;;;40.00;25.58;;;;;;;9.98;81.44;99220.91;5039782;28;20032;-76
2021/01/30 04:01:58;;;;;;;36.45;21.92;;;;;;;9.85;81.61;99230.69;5039376;28;20358;-76
2021/01/30 04:04:24;;;;;;;25.20;17.35;;;;;;;9.80;81.84;99231.06;5038957;28;20033;-76
2021/01/30 04:06:51;;;;;;;17.08;7.85;;;;;;;9.76;82.88;99227.44;5039924;28;20036;-76
2021/01/30 04:09:18;;;;;;;54.95;37.00;;;;;;;9.78;82.83;99227.06;5040044;28;20049;-76
2021/01/30 04:11:45;;;;;;;25.92;16.05;;;;;;;9.75;83.04;99228.63;5040354;28;20064;-76
2021/01/30 04:14:11;;;;;;;34.97;17.80;;;;;;;9.70;83.08;99226.19;5040530;28;20092;-76
2021/01/30 04:16:37;;;;;;;39.10;26.38;;;;;;;9.59;83.45;99219.72;5039912;28;20093;-75
2021/01/30 04:19:03;;;;;;;54.20;35.33;;;;;;;9.42;83.60;99219.09;5039914;28;20069;-75
2021/01/30 04:21:29;;;;;;;52.80;36.15;;;;;;;9.32;84.13;99222.56;5040695;28;20018;-76
2021/01/30 04:23:55;;;;;;;55.92;36.17;;;;;;;9.33;83.96;99221.41;5040036;28;20033;-76
2021/01/30 04:26:20;;;;;;;48.33;30.98;;;;;;;9.22;83.56;99206.59;5040145;28;20079;-75
2021/01/30 04:28:50;;;;;;;41.33;26.02;;;;;;;9.22;84.40;99220.47;5040100;28;20041;-76
2021/01/30 04:31:16;;;;;;;66.55;42.67;;;;;;;9.15;84.26;99217.56;5040711;28;20030;-76
2021/01/30 04:33:43;;;;;;;67.57;45.03;;;;;;;9.07;84.45;99222.25;5040625;28;20360;-76
2021/01/30 04:36:09;;;;;;;55.85;35.08;;;;;;;8.88;84.29;99202.94;5024870;28;20033;-75
2021/01/30 04:38:34;;;;;;;33.33;18.00;;;;;;;9.04;84.32;99220.22;5040485;28;20520;-76
2021/01/30 04:41:23;;;;;;;40.63;22.73;;;;;;;9.04;84.16;99230.50;5040882;28;20029;-76
2021/01/30 04:44:10;;;;;;;25.42;11.95;;;;;;;8.90;83.69;99228.34;5025731;28;20105;-75
2021/01/30 04:46:54;;;;;;;18.70;8.82;;;;;;;8.91;83.86;99225.19;5042491;28;20037;-75
2021/01/30 04:49:43;;;;;;;14.35;7.00;;;;;;;8.78;84.17;99221.03;5043283;28;20032;-76
2021/01/30 04:52:27;;;;;;;17.58;6.72;;;;;;;8.88;84.78;99225.94;5043246;28;20519;-75
2021/01/30 04:54:54;;;;;;;19.83;8.15;;;;;;;8.80;84.84;99220.69;5044391;28;20024;-76
2021/01/30 04:57:42;;;;;;;22.58;8.75;;;;;;;8.75;85.02;99232.91;5044665;28;20104;-76
2021/01/30 05:00:35;;;;;;;22.40;11.50;;;;;;;8.73;85.06;99235.22;5043495;28;20090;-76
2021/01/30 05:03:28;;;;;;;22.98;11.95;;;;;;;8.75;84.96;99234.88;5043726;28;20040;-76
2021/01/30 05:06:00;;;;;;;21.38;10.00;;;;;;;8.71;84.97;99228.47;5043733;28;20059;-76
2021/01/30 05:08:39;;;;;;;13.68;6.93;;;;;;;8.64;85.49;99231.94;5046174;28;20092;-76
2021/01/30 05:11:12;;;;;;;23.70;8.43;;;;;;;8.62;85.52;99220.41;5042150;28;20036;-76
2021/01/30 05:13:44;;;;;;;21.52;8.85;;;;;;;8.59;85.70;99230.28;5041961;28;20522;-76
2021/01/30 05:16:36;;;;;;;14.80;6.45;;;;;;;8.58;85.48;99227.88;5039199;28;20036;-75
2021/01/30 05:19:06;;;;;;;15.23;6.47;;;;;;;8.54;85.43;99232.56;5006944;28;20041;-76
2021/01/30 05:21:34;;;;;;;10.70;5.07;;;;;;;8.48;85.71;99245.16;5042573;28;20029;-74
2021/01/30 05:24:00;;;;;;;21.30;5.45;;;;;;;8.48;85.82;99239.59;5042531;28;20064;-76
2021/01/30 05:26:52;;;;;;;16.83;5.10;;;;;;;8.45;85.74;99241.13;5041212;28;20029;-76
2021/01/30 05:29:36;;;;;;;16.17;4.75;;;;;;;8.44;85.58;99244.28;5041533;28;20037;-75
2021/01/30 05:32:11;;;;;;;16.45;5.57;;;;;;;8.39;85.57;99242.63;5041723;28;20025;-76
2021/01/30 05:35:01;;;;;;;15.45;4.60;;;;;;;8.44;85.74;99239.53;5041669;28;20031;-76
2021/01/30 05:37:33;;;;;;;19.33;6.00;;;;;;;8.36;85.49;99237.81;5040920;28;20039;-75
2021/01/30 05:40:29;;;;;;;17.98;6.63;;;;;;;8.41;85.62;99243.03;5041101;28;20472;-76
2021/01/30 05:43:07;;;;;;;16.20;6.22;;;;;;;8.48;85.35;99245.16;5041671;28;20029;-76
2021/01/30 05:45:38;;;;;;;26.40;6.85;;;;;;;8.36;85.36;99248.88;5042123;28;20029;-76
2021/01/30 05:48:15;;;;;;;15.23;6.57;;;;;;;8.30;85.58;99250.34;5037685;28;20052;-76
2021/01/30 05:50:47;;;;;;;15.27;7.40;;;;;;;8.26;86.13;99253.06;5037787;28;20026;-76
2021/01/30 05:53:19;;;;;;;19.92;7.78;;;;;;;8.24;86.25;99255.41;5038691;28;20033;-76
2021/01/30 05:55:44;;;;;;;19.70;9.18;;;;;;;8.23;85.91;99256.56;5037798;28;20022;-76
2021/01/30 05:58:14;;;;;;;15.32;8.60;;;;;;;8.20;85.44;99257.31;5038429;28;20132;-76
2021/01/30 06:00:40;;;;;;;15.68;7.60;;;;;;;8.20;86.20;99257.31;5038877;28;20025;-77
2021/01/30 06:03:06;;;;;;;12.43;5.63;;;;;;;8.19;85.36;99264.00;5038044;28;20033;-75
2021/01/30 06:05:41;;;;;;;7.05;4.30;;;;;;;8.15;85.41;99257.63;5039368;28;20510;-76
2021/01/30 06:08:13;;;;;;;10.75;5.20;;;;;;;8.17;85.08;99271.13;5040149;28;20079;-75
2021/01/30 06:10:41;;;;;;;10.73;4.45;;;;;;;8.16;84.68;99267.53;5037752;28;20029;-76
2021/01/30 06:13:15;;;;;;;9.48;4.25;;;;;;;8.18;84.63;99275.47;5037897;28;20108;-75
2021/01/30 06:15:44;;;;;;;10.20;4.57;;;;;;;8.17;84.81;99285.75;5035950;28;20037;-77
2021/01/30 06:18:25;;;;;;;11.43;4.40;;;;;;;8.17;85.04;99296.84;5035856;28;20104;-78
2021/01/30 06:21:12;;;;;;;11.93;4.47;;;;;;;8.17;84.79;99302.38;5035927;28;20022;-78
2021/01/30 06:23:39;;;;;;;11.05;3.50;;;;;;;8.25;84.21;99308.84;5036902;28;20108;-76
2021/01/30 06:26:20;;;;;;;11.85;4.25;;;;;;;8.32;84.07;99309.78;5036271;28;20435;-76
2021/01/30 06:29:02;;;;;;;13.88;4.60;;;;;;;8.54;83.87;99315.75;5034277;28;20380;-75
2021/01/30 06:31:33;;;;;;;13.65;4.28;;;;;;;8.73;83.46;99326.75;5031534;28;20132;-76
2021/01/30 06:34:23;;;;;;;18.02;5.72;;;;;;;9.03;81.92;99317.72;5035441;28;20030;-76
2021/01/30 06:36:51;;;;;;;13.27;6.55;;;;;;;9.45;81.00;99323.06;5036487;28;20036;-76
2021/01/30 06:39:32;;;;;;;21.90;8.60;;;;;;;9.87;79.59;99331.16;5034176;28;20029;-76
2021/01/30 06:42:11;;;;;;;13.38;8.05;;;;;;;10.32;77.82;99334.84;5034667;28;20025;-76
2021/01/30 06:44:38;;;;;;;12.25;6.28;;;;;;;10.77;75.68;99338.47;5035365;28;20033;-76
2021/01/30 06:47:12;;;;;;;12.45;7.15;;;;;;;11.14;73.32;99340.34;5041967;28;20053;-75
2021/01/30 06:49:42;;;;;;;9.93;6.57;;;;;;;11.38;72.79;99338.88;5039521;28;20345;-76
2021/01/30 06:52:24;;;;;;;16.92;8.65;;;;;;;11.67;71.29;99337.06;5039213;28;20033;-76
2021/01/30 06:55:04;;;;;;;16.35;10.55;;;;;;;11.92;70.79;99332.41;5037732;28;20033;-76
2021/01/30 06:57:31;;;;;;;17.13;10.68;;;;;;;12.26;69.50;99351.66;5038842;28;20061;-76
2021/01/30 07:00:01;;;;;;;19.73;10.55;;;;;;;12.56;68.20;99354.91;5039721;28;20029;-76
2021/01/30 07:02:37;;;;;;;18.30;10.18;;;;;;;12.91;66.77;99350.56;5037941;28;20033;-75
2021/01/30 07:05:21;;;;;;;26.27;16.75;;;;;;;13.13;65.73;99353.34;5038282;28;20116;-76
2021/01/30 07:07:46;;;;;;;;;;;;;;;13.44;65.05;99351.72;5038651;28;20029;-76
2021/01/30 07:10:29;;;;;;;29.80;13.68;;;;;;;13.76;64.07;99352.44;5037817;28;20378;-75
2021/01/30 07:13:01;;;;;;;20.55;12.05;;;;;;;14.03;63.07;99352.75;5037586;28;20086;-76
2021/01/30 07:15:29;;;;;;;22.00;13.60;;;;;;;14.31;61.65;99351.78;5036150;28;20037;-76
2021/01/30 07:18:17;;;;;;;15.57;8.77;;;;;;;14.45;60.54;99350.94;5035499;28;20036;-75
2021/01/30 07:20:42;;;;;;;19.05;9.32;;;;;;;14.73;60.12;99357.56;5036522;28;20032;-76
2021/01/30 07:23:15;;;;;;;22.02;9.57;;;;;;;14.12;61.10;99369.88;5038591;28;20372;-76
2021/01/30 07:26:06;;;;;;;17.33;10.88;;;;;;;13.71;63.47;99369.63;5037798;28;20036;-74
2021/01/30 07:28:38;;;;;;;17.98;8.18;;;;;;;13.38;64.40;99361.72;5004567;28;20060;-76
2021/01/30 07:31:18;;;;;;;14.40;8.48;;;;;;;13.67;63.76;99362.44;5043040;28;20041;-75
2021/01/30 07:33:56;;;;;;;11.68;7.28;;;;;;;14.01;62.68;99363.53;5044137;28;20029;-76
2021/01/30 07:36:31;;;;;;;19.45;8.73;;;;;;;14.58;61.83;99366.06;5041729;28;20163;-78
2021/01/30 07:39:09;;;;;;;18.75;10.98;;;;;;;14.57;60.95;99381.25;5039819;28;20499;-78
2021/01/30 07:41:35;;;;;;;20.65;12.57;;;;;;;13.88;63.27;99370.78;5040504;28;20444;-78
2021/01/30 07:44:13;;;;;;;26.60;14.10;;;;;;;14.57;61.89;99369.28;5041107;28;20035;-76
2021/01/30 07:46:43;;;;;;;24.20;11.95;;;;;;;15.10;59.51;99373.69;5035151;28;20029;-79
2021/01/30 07:49:26;;;;;;;15.93;8.60;;;;;;;15.25;59.28;99377.16;5038586;28;20025;-76
2021/01/30 07:51:51;;;;;;;20.33;9.35;;;;;;;15.98;57.80;99372.03;5039603;28;20111;-77
2021/01/30 07:54:19;;;;;;;14.05;6.90;;;;;;;16.43;55.16;99376.66;5039118;28;20159;-77
2021/01/30 07:56:54;;;;;;;15.63;8.02;;;;;;;16.74;54.69;99372.63;5039297;28;20033;-76
2021/01/30 07:59:43;;;;;;;17.80;7.82;;;;;;;17.05;54.34;99375.38;5038333;28;20025;-77
2021/01/30 08:02:44;;;;;;;16.23;7.90;;;;;;;17.26;52.03;99388.28;5037759;28;20541;-78
2021/01/30 08:05:46;;;;;;;19.50;12.23;;;;;;;17.57;51.74;99386.09;4958549;28;20027;-76
2021/01/30 08:08:55;;;;;;;25.60;13.95;;;;;;;17.96;50.87;99381.78;5037665;28;20025;-76
2021/01/30 08:11:30;;;;;;;15.35;7.60;;;;;;;17.98;49.81;99382.13;5023510;28;20064;-85
2021/01/30 08:14:14;;;;;;;18.75;10.10;;;;;;;18.07;51.19;99379.56;5037956;28;20033;-77
2021/01/30 08:16:58;;;;;;;18.52;9.75;;;;;;;18.54;49.69;99388.59;5038134;28;20032;-81
2021/01/30 08:19:45;;;;;;;17.98;6.93;;;;;;;18.76;48.97;99394.56;5037508;28;20032;-79
2021/01/30 08:22:21;;;;;;;17.48;6.75;;;;;;;18.80;48.70;99392.47;5037938;28;20481;-79
2021/01/30 08:25:00;;;;;;;16.08;7.78;;;;;;;19.11;48.43;99386.50;5037413;28;20036;-76
2021/01/30 08:27:36;;;;;;;15.23;6.93;;;;;;;19.27;47.88;99389.31;5037342;28;20025;-79
2021/01/30 08:30:13;;;;;;;21.73;9.27;;;;;;;18.80;48.27;99400.94;5038120;28;20040;-81
2021/01/30 08:32:54;;;;;;;20.42;7.93;;;;;;;18.76;47.43;99405.84;5037453;28;20025;-77
2021/01/30 08:35:38;;;;;;;15.65;7.78;;;;;;;17.55;52.21;99408.25;5055202;28;20380;-76
2021/01/30 08:38:32;;;;;;;13.95;8.45;;;;;;;17.26;51.91;99400.31;5037180;28;20029;-75
2021/01/30 08:41:04;;;;;;;21.13;9.02;;;;;;;17.37;52.84;99400.13;5036082;28;20037;-76
2021/01/30 08:43:47;;;;;;;23.13;9.57;;;;;;;17.29;51.80;99393.81;5020903;28;20132;-76
2021/01/30 08:46:39;;;;;;;17.30;8.45;;;;;;;17.25;52.73;99393.06;5037185;28;20071;-89
2021/01/30 08:49:28;;;;;;;14.93;5.65;;;;;;;16.93;51.62;99423.72;5055154;28;20033;-83
2021/01/30 08:52:12;;;;;;;8.00;3.42;;;;;;;17.21;51.29;99420.47;5037605;28;20086;-80
2021/01/30 08:54:45;;;;;;;5.95;2.53;;;;;;;17.75;49.58;99417.56;5036734;28;20025;-78
2021/01/30 08:57:33;;;;;;;10.27;3.57;;;;;;;17.97;48.87;99412.31;5036468;28;20040;-74
2021/01/30 09:00:04;;;;;;;10.45;3.45;;;;;;;17.49;49.12;99416.38;5035783;28;20379;-80
2021/01/30 09:02:33;;;;;;;9.63;3.65;;;;;;;17.98;47.09;99407.47;5054146;28;20112;-78
2021/01/30 09:05:08;;;;;;;13.02;4.60;;;;;;;18.65;46.66;99419.34;5036967;28;20094;-76
2021/01/30 09:07:39;;;;;;;6.85;2.85;;;;;;;18.34;45.92;99418.81;5037284;28;20021;-83
2021/01/30 09:10:22;;;;;;;14.50;3.35;;;;;;;18.45;45.49;99424.22;5036408;28;20043;-79
2021/01/30 09:12:54;;;;;;;9.30;2.90;;;;;;;18.01;46.95;99431.94;5036586;28;20029;-79
2021/01/30 09:15:38;;;;;;;8.27;3.63;;;;;;;18.06;45.93;99432.25;5036552;28;20040;-77
2021/01/30 09:18:22;;;;;;;9.68;3.50;;;;;;;17.91;47.04;99436.56;5036618;28;20021;-77
2021/01/30 09:20:50;;;;;;;12.52;4.10;;;;;;;18.23;47.64;99424.66;5036389;28;20124;-76
2021/01/30 09:23:47;;;;;;;12.02;3.88;;;;;;;18.56;46.64;99433.22;5036856;28;20124;-76
2021/01/30 09:26:58;;;;;;;15.45;3.40;;;;;;;18.40;47.07;99419.09;5036631;28;20025;-76
2021/01/30 09:29:33;;;;;;;11.68;4.28;;;;;;;18.28;47.72;99426.97;5037066;28;20025;-76
2021/01/30 09:31:59;;;;;;;16.73;4.57;;;;;;;18.27;47.46;99431.03;5036120;28;20040;-76
2021/01/30 09:34:30;;;;;;;12.65;3.53;;;;;;;17.92;46.97;99431.72;5036175;28;20123;-75
2021/01/30 09:36:57;;;;;;;10.25;4.03;;;;;;;18.65;45.59;99435.47;5036589;28;20029;-76
2021/01/30 09:39:33;;;;;;;12.30;2.53;;;;;;;18.42;45.23;99431.50;5036103;28;20028;-76
2021/01/30 09:42:06;;;;;;;13.48;3.40;;;;;;;18.31;45.17;99445.81;5037174;28;20037;-75
2021/01/30 09:44:32;;;;;;;9.00;2.83;;;;;;;18.21;45.40;99455.25;5036791;28;20393;-75
2021/01/30 09:47:02;;;;;;;13.05;3.38;;;;;;;18.72;44.82;99450.22;5032645;28;20128;-75
2021/01/30 09:49:32;;;;;;;8.77;2.78;;;;;;;18.58;44.37;99454.09;5031965;28;20514;-75
2021/01/30 09:51:59;;;;;;;15.57;3.28;;;;;;;19.18;44.59;99454.00;5032541;28;20044;-75
2021/01/30 09:54:27;;;;;;;15.13;3.40;;;;;;;19.10;45.26;99461.03;5033001;28;20029;-75
2021/01/30 09:57:22;;;;;;;10.27;3.95;;;;;;;19.18;44.93;99447.59;5032283;28;20036;-75
2021/01/30 09:59:55;;;;;;;11.23;3.78;;;;;;;19.36;44.40;99454.38;5033051;28;20025;-75
2021/01/30 10:02:23;;;;;;;10.73;2.88;;;;;;;19.70;43.38;99460.81;5033652;28;20036;-75
2021/01/30 10:05:03;;;;;;;16.83;3.83;;;;;;;19.26;43.70;99466.69;5032894;28;20028;-74
2021/01/30 10:07:29;;;;;;;10.27;2.80;;;;;;;19.01;44.07;99463.66;5032309;28;20111;-76
2021/01/30 10:09:55;;;;;;;8.82;2.67;;;;;;;19.16;42.48;99464.91;5032196;28;20084;-75
2021/01/30 10:12:23;;;;;;;10.73;3.65;;;;;;;19.56;42.67;99464.78;5015915;28;20029;-75
2021/01/30 10:15:00;;;;;;;15.18;3.75;;;;;;;19.48;42.99;99466.19;5032460;28;20474;-74
2021/01/30 10:17:33;;;;;;;9.95;2.63;;;;;;;18.89;44.49;99453.88;5032223;28;20046;-74
2021/01/30 10:20:10;;;;;;;15.85;3.00;;;;;;;18.82;45.02;99456.84;5032638;28;20032;-74
2021/01/30 10:22:39;;;;;;;13.82;2.80;;;;;;;18.95;44.83;99454.13;5031935;28;20021;-74
2021/01/30 10:25:09;;;;;;;13.00;3.40;;;;;;;18.50;45.39;99444.22;5016090;28;20037;-74
2021/01/30 10:27:35;;;;;;;14.90;3.42;;;;;;;18.70;45.47;99449.88;5032540;28;20026;-74
2021/01/30 10:30:03;;;;;;;10.40;2.25;;;;;;;18.70;45.21;99438.59;5033037;28;20360;-75
2021/01/30 10:32:52;;;;;;;8.57;2.70;;;;;;;18.65;45.71;99456.00;5032681;28;20044;-75
2021/01/30 10:35:25;;;;;;;11.55;3.38;;;;;;;18.92;45.16;99457.84;5032134;28;20029;-75
2021/01/30 10:37:59;;;;;;;6.82;2.53;;;;;;;18.88;45.18;99457.13;5032106;28;20025;-76
2021/01/30 10:40:42;;;;;;;6.75;2.83;;;;;;;18.71;45.08;99451.44;5032000;28;20026;-73
2021/01/30 10:43:18;;;;;;;11.45;3.13;;;;;;;19.47;44.30;99444.84;5032719;28;20530;-76
2021/01/30 10:45:51;;;;;;;14.18;2.67;;;;;;;19.34;44.64;99450.41;5031557;28;20172;-73
2021/01/30 10:48:22;;;;;;;11.80;2.78;;;;;;;19.52;44.39;99444.31;5031517;28;20072;-74
2021/01/30 10:50:50;;;;;;;12.88;4.00;;;;;;;19.15;45.30;99445.63;5031817;28;20025;-79
2021/01/30 10:53:22;;;;;;;10.18;3.20;;;;;;;19.15;45.08;99442.81;5032112;28;20033;-77
2021/01/30 10:55:52;;;;;;;13.30;3.42;;;;;;;18.21;46.82;99438.38;5032445;28;20026;-76
2021/01/30 10:58:27;;;;;;;11.77;3.70;;;;;;;18.45;47.54;99424.22;5031918;28;20091;-78
2021/01/30 11:01:03;;;;;;;21.63;4.50;;;;;;;18.11;48.73;99433.75;5033197;28;20022;-76
2021/01/30 11:03:51;;;;;;;11.75;4.13;;;;;;;18.13;48.64;99436.94;5035783;28;20034;-80
2021/01/30 11:06:33;;;;;;;14.75;5.03;;;;;;;16.97;51.84;99436.50;5035533;28;20029;-77
2021/01/30 11:09:11;;;;;;;20.98;5.07;;;;;;;16.65;53.11;99441.75;5036536;28;20033;-78
2021/01/30 11:11:37;;;;;;;13.40;4.35;;;;;;;16.89;52.16;99428.59;5039120;28;20034;-79
2021/01/30 11:14:15;;;;;;;14.82;3.78;;;;;;;16.97;52.44;99424.47;5040494;28;20030;-75
2021/01/30 11:16:44;;;;;;;15.73;5.30;;;;;;;16.69;52.57;99423.63;5040599;28;20561;-78
2021/01/30 11:19:26;;;;;;;15.10;4.28;;;;;;;16.79;52.87;99429.56;5035983;28;20040;-79
2021/01/30 11:22:23;;;;;;;11.18;5.22;;;;;;;16.87;52.28;99436.66;5037859;28;20028;-78
2021/01/30 11:25:05;;;;;;;12.88;4.10;;;;;;;17.22;51.85;99444.53;5022499;28;20037;-79
2021/01/30 11:27:45;;;;;;;18.80;4.18;;;;;;;17.23;51.65;99429.25;5037870;28;20029;-79
2021/01/30 11:30:21;;;;;;;11.20;3.22;;;;;;;17.34;50.41;99433.91;5037781;28;20030;-75
2021/01/30 11:33:01;;;;;;;13.85;5.20;;;;;;;17.12;51.62;99439.88;5036988;28;20037;-78
2021/01/30 11:35:33;;;;;;;15.15;3.60;;;;;;;17.03;51.07;99440.41;5038774;28;20128;-77
2021/01/30 11:38:04;;;;;;;13.23;3.20;;;;;;;17.26;51.22;99439.66;5038813;28;20021;-77
2021/01/30 11:40:30;;;;;;;15.93;3.83;;;;;;;17.27;51.47;99432.03;5019702;28;20057;-77
2021/01/30 11:42:56;;;;;;;13.65;3.30;;;;;;;17.08;51.85;99419.47;5038908;28;20041;-78
2021/01/30 11:45:21;;;;;;;16.42;4.50;;;;;;;17.08;52.31;99430.72;5039620;28;20476;-78
2021/01/30 11:47:47;;;;;;;12.30;3.50;;;;;;;16.68;53.07;99430.47;5038098;28;20132;-78
2021/01/30 11:50:12;;;;;;;18.38;4.28;;;;;;;16.73;53.32;99421.59;5038167;28;20369;-78
2021/01/30 11:52:38;;;;;;;13.50;3.00;;;;;;;16.72;53.37;99436.88;5038440;28;20052;-75
2021/01/30 11:55:05;;;;;;;11.55;4.15;;;;;;;16.75;53.41;99436.00;5040124;28;20030;-78
2021/01/30 11:57:30;;;;;;;15.20;4.10;;;;;;;16.89;54.28;99423.00;5041216;28;20045;-77
2021/01/30 11:59:58;;;;;;;14.40;3.10;;;;;;;17.00;53.45;99418.00;5037308;28;20033;-78